createdAt,value
2018-09-18T00:00:14.416Z,12.87
2018-09-18T00:02:43.591Z,12.90
2018-09-18T00:05:13.016Z,13.03
2018-09-18T00:07:42.829Z,11.67
2018-09-18T00:10:11.992Z,11.70
2018-09-18T00:12:41.345Z,13.40
2018-09-18T00:15:10.302Z,11.93
2018-09-18T00:17:39.502Z,12.53
2018-09-18T00:20:08.744Z,14.13
2018-09-18T00:22:38.184Z,13.40
2018-09-18T00:25:07.679Z,17.80
2018-09-18T00:27:36.711Z,15.63
2018-09-18T00:30:06.229Z,14.73
2018-09-18T00:32:35.444Z,16.97
2018-09-18T00:35:04.636Z,14.93
2018-09-18T00:37:34.061Z,15.53
2018-09-18T00:40:03.312Z,14.57
2018-09-18T00:42:32.444Z,15.00
2018-09-18T00:45:01.897Z,14.47
2018-09-18T00:47:31.137Z,14.47
2018-09-18T00:50:00.204Z,14.30
2018-09-18T00:52:29.351Z,14.07
2018-09-18T00:54:58.648Z,13.20
2018-09-18T00:57:28.336Z,14.13
2018-09-18T00:59:57.548Z,14.57
2018-09-18T01:02:26.900Z,14.13
2018-09-18T01:04:56.350Z,14.27
2018-09-18T01:07:25.909Z,13.83
2018-09-18T01:09:55.544Z,13.20
2018-09-18T01:12:24.715Z,13.63
2018-09-18T01:14:54.088Z,13.40
2018-09-18T01:17:23.172Z,13.10
2018-09-18T01:19:52.432Z,14.07
2018-09-18T01:22:21.696Z,12.43
2018-09-18T01:24:51.171Z,13.20
2018-09-18T01:27:20.284Z,12.90
2018-09-18T01:29:49.587Z,12.33
2018-09-18T01:32:18.937Z,13.63
2018-09-18T01:34:48.367Z,12.07
2018-09-18T01:37:17.661Z,12.20
2018-09-18T01:39:46.984Z,12.10
2018-09-18T01:42:16.188Z,12.10
2018-09-18T01:44:45.496Z,11.90
2018-09-18T01:47:15.139Z,11.53
2018-09-18T01:49:44.483Z,12.83
2018-09-18T01:52:13.856Z,12.90
2018-09-18T01:54:43.132Z,13.23
2018-09-18T01:57:12.734Z,13.80
2018-09-18T01:59:42.163Z,13.80
2018-09-18T02:02:11.429Z,13.50
2018-09-18T02:04:40.865Z,13.77
2018-09-18T02:07:10.065Z,13.20
2018-09-18T02:09:39.360Z,12.97
2018-09-18T02:12:08.687Z,12.87
2018-09-18T02:14:38.020Z,12.87
2018-09-18T02:17:07.299Z,12.80
2018-09-18T02:19:36.764Z,13.10
2018-09-18T02:22:05.907Z,11.67
2018-09-18T02:24:35.878Z,11.90
2018-09-18T02:27:06.144Z,11.60
2018-09-18T02:29:36.248Z,11.57
2018-09-18T02:32:05.572Z,10.17
2018-09-18T02:34:35.018Z,9.83
2018-09-18T02:37:04.428Z,11.37
2018-09-18T02:39:33.686Z,12.57
2018-09-18T02:42:03.126Z,12.10
2018-09-18T02:44:32.352Z,12.47
2018-09-18T02:47:01.948Z,11.87
2018-09-18T02:49:31.429Z,12.33
2018-09-18T02:52:00.639Z,12.93
2018-09-18T02:54:29.907Z,14.17
2018-09-18T02:56:59.055Z,12.23
2018-09-18T02:59:28.813Z,13.47
2018-09-18T03:01:58.240Z,12.73
2018-09-18T03:04:27.340Z,12.57
2018-09-18T03:06:56.658Z,12.63
2018-09-18T03:09:26.030Z,12.20
2018-09-18T03:11:55.509Z,11.30
2018-09-18T03:14:24.890Z,12.23
2018-09-18T03:16:54.385Z,12.00
2018-09-18T03:19:24.056Z,12.93
2018-09-18T03:21:53.255Z,12.03
2018-09-18T03:24:22.592Z,11.77
2018-09-18T03:26:52.168Z,12.97
2018-09-18T03:29:21.364Z,11.60
2018-09-18T03:31:50.821Z,12.57
2018-09-18T03:34:20.326Z,12.70
2018-09-18T03:36:49.874Z,12.00
2018-09-18T03:39:19.379Z,12.67
2018-09-18T03:41:48.769Z,12.70
2018-09-18T03:44:17.805Z,13.30
2018-09-18T03:46:47.617Z,13.47
2018-09-18T03:49:16.684Z,14.43
2018-09-18T03:51:46.215Z,14.07
2018-09-18T03:54:15.566Z,15.07
2018-09-18T03:56:44.719Z,15.90
2018-09-18T03:59:13.953Z,16.13
2018-09-18T04:01:43.294Z,17.67
2018-09-18T04:04:13.735Z,17.23
2018-09-18T04:06:44.020Z,15.40
2018-09-18T04:09:13.731Z,14.40
2018-09-18T04:11:43.112Z,14.50
2018-09-18T04:14:12.345Z,15.10
2018-09-18T04:16:41.609Z,14.30
2018-09-18T04:19:10.869Z,13.93
2018-09-18T04:21:41.266Z,14.07
2018-09-18T04:24:10.726Z,18.10
2018-09-18T04:26:41.088Z,19.33
2018-09-18T04:29:10.698Z,19.80
2018-09-18T04:31:41.140Z,18.13
2018-09-18T04:34:10.640Z,18.03
2018-09-18T04:36:40.000Z,16.73
2018-09-18T04:39:10.876Z,17.27
2018-09-18T04:41:40.013Z,18.47
2018-09-18T04:44:09.858Z,18.13
2018-09-18T04:46:39.385Z,20.07
2018-09-18T04:49:08.949Z,20.83
2018-09-18T04:51:38.220Z,22.47
2018-09-18T04:54:07.473Z,22.77
2018-09-18T04:56:36.929Z,21.63
2018-09-18T04:59:06.342Z,21.17
2018-09-18T05:01:35.935Z,22.23
2018-09-18T05:04:05.108Z,22.63
2018-09-18T05:06:34.862Z,22.10
2018-09-18T05:09:05.092Z,40.00
2018-09-18T05:11:34.268Z,52.20
2018-09-18T05:14:04.184Z,69.20
2018-09-18T05:16:33.483Z,65.77
2018-09-18T05:19:03.078Z,52.97
2018-09-18T05:21:32.380Z,51.20
2018-09-18T05:24:02.115Z,52.77
2018-09-18T05:26:31.717Z,43.37
2018-09-18T05:29:01.223Z,42.73
2018-09-18T05:31:30.664Z,49.23
2018-09-18T05:33:59.812Z,42.17
2018-09-18T05:36:29.063Z,38.27
2018-09-18T05:38:58.519Z,36.20
2018-09-18T05:41:27.901Z,33.40
2018-09-18T05:43:57.124Z,29.33
2018-09-18T05:46:26.470Z,29.47
2018-09-18T05:48:56.671Z,29.53
2018-09-18T05:51:25.869Z,36.77
2018-09-18T05:53:55.405Z,47.33
2018-09-18T05:56:25.324Z,53.00
2018-09-18T05:58:54.676Z,36.97
2018-09-18T06:01:24.201Z,32.40
2018-09-18T06:03:53.592Z,44.13
2018-09-18T06:06:22.789Z,41.43
2018-09-18T06:08:52.111Z,40.70
2018-09-18T06:11:21.419Z,42.83
2018-09-18T06:13:50.427Z,40.43
2018-09-18T06:16:19.911Z,40.23
2018-09-18T06:18:49.206Z,36.87
2018-09-18T06:21:18.320Z,36.43
2018-09-18T06:23:47.596Z,33.57
2018-09-18T06:26:17.770Z,31.83
2018-09-18T06:28:46.979Z,27.90
2018-09-18T06:31:16.313Z,28.00
2018-09-18T06:33:45.668Z,27.37
2018-09-18T06:36:15.095Z,23.33
2018-09-18T06:38:44.408Z,24.33
2018-09-18T06:41:13.876Z,24.97
2018-09-18T06:43:43.020Z,26.17
2018-09-18T06:46:12.540Z,25.20
2018-09-18T06:48:41.829Z,26.83
2018-09-18T06:51:11.085Z,25.33
2018-09-18T06:53:40.265Z,23.40
2018-09-18T06:56:09.777Z,20.83
2018-09-18T06:58:38.996Z,21.27
2018-09-18T07:01:08.324Z,19.20
2018-09-18T07:03:37.643Z,19.60
2018-09-18T07:06:07.023Z,17.83
2018-09-18T07:08:36.208Z,14.63
2018-09-18T07:11:05.769Z,14.60
2018-09-18T07:13:35.277Z,14.23
2018-09-18T07:16:04.485Z,14.07
2018-09-18T07:18:33.629Z,13.53
2018-09-18T07:21:02.875Z,13.53
2018-09-18T07:23:32.274Z,12.00
2018-09-18T07:26:01.489Z,12.10
2018-09-18T07:28:30.604Z,12.37
2018-09-18T07:31:00.121Z,11.53
2018-09-18T07:33:29.228Z,11.60
2018-09-18T07:35:58.569Z,11.30
2018-09-18T07:38:27.637Z,11.27
2018-09-18T07:40:57.128Z,10.60
2018-09-18T07:43:26.204Z,9.80
2018-09-18T07:45:55.696Z,9.97
2018-09-18T07:48:25.533Z,9.87
2018-09-18T07:50:55.669Z,10.93
2018-09-18T07:53:24.899Z,10.77
2018-09-18T07:55:54.315Z,11.30
2018-09-18T07:58:23.590Z,9.57
2018-09-18T08:00:53.309Z,8.97
2018-09-18T08:03:23.451Z,9.53
2018-09-18T08:05:52.778Z,8.97
2018-09-18T08:08:22.103Z,8.37
2018-09-18T08:10:51.622Z,7.97
2018-09-18T08:13:20.792Z,8.67
2018-09-18T08:15:50.312Z,7.58
2018-09-18T08:18:19.735Z,6.80
2018-09-18T08:20:49.128Z,6.97
2018-09-18T08:23:18.339Z,6.58
2018-09-18T08:25:48.049Z,6.17
2018-09-18T08:28:17.216Z,7.10
2018-09-18T08:30:46.559Z,5.90
2018-09-18T08:33:15.826Z,5.87
2018-09-18T08:35:45.389Z,5.78
2018-09-18T08:38:14.817Z,5.47
2018-09-18T08:40:43.993Z,5.70
2018-09-18T08:43:13.074Z,5.45
2018-09-18T08:45:42.672Z,5.28
2018-09-18T08:48:11.790Z,5.25
2018-09-18T08:50:41.357Z,5.35
2018-09-18T08:53:10.956Z,6.05
2018-09-18T08:55:40.057Z,5.50
2018-09-18T08:58:09.268Z,5.45
2018-09-18T09:00:38.604Z,4.95
2018-09-18T09:03:07.830Z,5.05
2018-09-18T09:05:37.348Z,5.10
2018-09-18T09:08:07.498Z,5.62
2018-09-18T09:10:36.429Z,4.55
2018-09-18T09:13:05.737Z,4.70
2018-09-18T09:15:35.178Z,4.50
2018-09-18T09:18:05.842Z,4.78
2018-09-18T09:20:35.093Z,4.83
2018-09-18T09:23:04.544Z,4.60
2018-09-18T09:25:33.607Z,4.40
2018-09-18T09:28:03.018Z,4.50
2018-09-18T09:30:32.423Z,4.25
2018-09-18T09:33:01.648Z,4.75
2018-09-18T09:35:31.234Z,4.60
2018-09-18T09:38:00.658Z,4.50
2018-09-18T09:40:29.818Z,4.22
2018-09-18T09:42:59.348Z,4.00
2018-09-18T09:45:28.441Z,4.22
2018-09-18T09:47:57.834Z,4.30
2018-09-18T09:50:26.925Z,4.62
2018-09-18T09:52:56.292Z,3.85
2018-09-18T09:55:25.609Z,3.90
2018-09-18T09:57:55.641Z,4.05
2018-09-18T10:00:30.139Z,3.70
2018-09-18T10:02:59.419Z,3.52
2018-09-18T10:05:28.606Z,3.77
2018-09-18T10:07:58.312Z,3.15
2018-09-18T10:10:27.488Z,3.60
2018-09-18T10:12:57.092Z,3.55
2018-09-18T10:15:26.777Z,3.85
2018-09-18T10:17:56.374Z,3.30
2018-09-18T10:20:25.537Z,3.83
2018-09-18T10:22:55.095Z,3.58
2018-09-18T10:25:24.400Z,3.40
2018-09-18T10:27:53.772Z,3.77
2018-09-18T10:30:23.540Z,3.60
2018-09-18T10:32:52.869Z,3.62
2018-09-18T10:35:22.127Z,3.58
2018-09-18T10:37:51.351Z,3.47
2018-09-18T10:40:20.817Z,3.80
2018-09-18T10:42:50.031Z,3.80
2018-09-18T10:45:19.307Z,3.72
2018-09-18T10:47:49.040Z,3.20
2018-09-18T10:50:18.228Z,3.72
2018-09-18T10:52:48.449Z,4.05
2018-09-18T10:55:17.695Z,3.90
2018-09-18T10:57:46.883Z,3.60
2018-09-18T11:00:16.254Z,3.60
2018-09-18T11:02:45.542Z,3.75
2018-09-18T11:05:14.983Z,3.55
2018-09-18T11:07:44.669Z,3.75
2018-09-18T11:10:14.025Z,3.75
2018-09-18T11:12:43.361Z,3.35
2018-09-18T11:15:15.515Z,3.58
2018-09-18T11:17:45.256Z,3.33
2018-09-18T11:20:14.622Z,3.85
2018-09-18T11:22:44.437Z,3.62
2018-09-18T11:25:14.343Z,4.00
2018-09-18T11:27:43.619Z,4.37
2018-09-18T11:30:13.164Z,3.90
2018-09-18T11:32:42.332Z,3.85
2018-09-18T11:35:11.839Z,3.70
2018-09-18T11:37:41.163Z,3.95
2018-09-18T11:40:10.443Z,3.90
2018-09-18T11:42:40.018Z,3.72
2018-09-18T11:45:10.407Z,3.95
2018-09-18T11:47:39.828Z,3.55
2018-09-18T11:50:08.979Z,3.60
2018-09-18T11:52:38.289Z,4.08
2018-09-18T11:55:07.548Z,3.70
2018-09-18T11:57:37.101Z,3.90
2018-09-18T12:00:06.293Z,3.70
2018-09-18T12:02:35.716Z,3.92
2018-09-18T12:05:05.314Z,3.52
2018-09-18T12:07:34.500Z,3.77
2018-09-18T12:10:03.996Z,3.70
2018-09-18T12:12:33.386Z,3.90
2018-09-18T12:15:02.832Z,3.42
2018-09-18T12:17:32.035Z,10.00
2018-09-18T12:20:01.612Z,4.95
2018-09-18T12:22:30.874Z,4.25
2018-09-18T12:25:00.308Z,3.77
2018-09-18T12:27:29.685Z,3.90
2018-09-18T12:29:59.030Z,3.60
2018-09-18T12:32:28.357Z,3.77
2018-09-18T12:34:57.754Z,4.05
2018-09-18T12:37:27.047Z,3.72
2018-09-18T12:39:56.457Z,3.90
2018-09-18T12:42:25.943Z,3.65
2018-09-18T12:44:55.221Z,3.95
2018-09-18T12:47:24.369Z,3.67
2018-09-18T12:49:53.762Z,3.65
2018-09-18T12:52:22.941Z,3.62
2018-09-18T12:54:52.478Z,3.65
2018-09-18T12:57:22.179Z,3.87
2018-09-18T12:59:51.385Z,3.77
2018-09-18T13:02:21.362Z,3.52
2018-09-18T13:04:51.725Z,3.60
2018-09-18T13:07:21.001Z,3.80
2018-09-18T13:09:50.490Z,3.60
2018-09-18T13:12:20.085Z,4.10
2018-09-18T13:14:49.621Z,3.52
2018-09-18T13:17:20.152Z,3.20
2018-09-18T13:19:49.708Z,3.65
2018-09-18T13:22:19.265Z,3.58
2018-09-18T13:24:50.068Z,3.20
2018-09-18T13:27:19.489Z,3.27
2018-09-18T13:29:49.176Z,3.55
2018-09-18T13:32:18.550Z,3.40
2018-09-18T13:34:48.160Z,3.50
2018-09-18T13:37:17.436Z,3.50
2018-09-18T13:39:50.369Z,3.30
2018-09-18T13:42:22.910Z,3.60
2018-09-18T13:44:52.520Z,3.42
2018-09-18T13:47:21.807Z,3.85
2018-09-18T13:49:51.805Z,3.52
2018-09-18T13:52:21.699Z,3.52
2018-09-18T13:54:50.950Z,3.33
2018-09-18T13:57:20.448Z,3.20
2018-09-18T13:59:50.158Z,3.25
2018-09-18T14:02:19.458Z,4.22
2018-09-18T14:04:48.880Z,3.40
2018-09-18T14:07:18.277Z,3.12
2018-09-18T14:09:48.487Z,3.50
2018-09-18T14:12:18.013Z,3.08
2018-09-18T14:14:47.694Z,3.10
2018-09-18T14:17:16.863Z,3.40
2018-09-18T14:19:46.285Z,3.10
2018-09-18T14:22:15.494Z,3.50
2018-09-18T14:24:44.993Z,3.30
2018-09-18T14:27:14.607Z,3.37
2018-09-18T14:29:43.834Z,3.30
2018-09-18T14:32:13.247Z,3.40
2018-09-18T14:34:42.416Z,3.62
2018-09-18T14:37:11.754Z,3.47
2018-09-18T14:39:41.162Z,3.10
2018-09-18T14:42:10.464Z,3.95
2018-09-18T14:44:39.599Z,3.52
2018-09-18T14:47:09.722Z,3.42
2018-09-18T14:49:39.232Z,4.30
2018-09-18T14:52:08.755Z,3.62
2018-09-18T14:54:37.986Z,3.52
2018-09-18T14:57:07.463Z,3.90
2018-09-18T14:59:36.743Z,3.60
2018-09-18T15:02:06.268Z,3.40
2018-09-18T15:04:35.570Z,3.45
2018-09-18T15:07:05.415Z,3.62
2018-09-18T15:09:34.616Z,4.47
2018-09-18T15:12:04.036Z,4.00
2018-09-18T15:14:33.501Z,3.90
2018-09-18T15:17:03.129Z,3.55
2018-09-18T15:19:32.424Z,3.83
2018-09-18T15:22:01.683Z,3.90
2018-09-18T15:24:30.986Z,3.98
2018-09-18T15:27:00.152Z,3.98
2018-09-18T15:29:29.515Z,4.12
2018-09-18T15:31:58.968Z,4.30
2018-09-18T15:34:28.493Z,4.12
2018-09-18T15:36:58.128Z,4.05
2018-09-18T15:39:27.511Z,3.77
2018-09-18T15:41:57.028Z,4.37
2018-09-18T15:44:26.554Z,5.03
2018-09-18T15:46:55.992Z,4.85
2018-09-18T15:49:25.795Z,5.20
2018-09-18T15:51:55.570Z,5.67
2018-09-18T15:54:25.020Z,5.30
2018-09-18T15:56:54.280Z,5.50
2018-09-18T15:59:23.822Z,5.47
2018-09-18T16:01:53.352Z,5.83
2018-09-18T16:04:22.727Z,5.90
2018-09-18T16:06:52.045Z,5.15
2018-09-18T16:09:21.553Z,6.80
2018-09-18T16:11:50.827Z,5.97
2018-09-18T16:14:20.537Z,6.55
2018-09-18T16:16:50.167Z,6.78
2018-09-18T16:19:19.776Z,8.88
2018-09-18T16:21:48.952Z,12.40
2018-09-18T16:24:18.383Z,14.85
2018-09-18T16:26:47.553Z,14.15
2018-09-18T16:29:16.920Z,10.08
2018-09-18T16:31:46.313Z,8.05
2018-09-18T16:34:15.742Z,14.18
2018-09-18T16:36:45.374Z,14.85
2018-09-18T16:39:14.670Z,14.00
2018-09-18T16:41:44.215Z,11.80
2018-09-18T16:44:13.396Z,11.85
2018-09-18T16:46:42.795Z,9.75
2018-09-18T16:49:12.135Z,10.88
2018-09-18T16:51:41.455Z,11.40
2018-09-18T16:54:10.787Z,10.32
2018-09-18T16:56:42.420Z,11.10
2018-09-18T16:59:11.969Z,11.12
2018-09-18T17:01:41.399Z,10.15
2018-09-18T17:04:10.812Z,10.00
2018-09-18T17:06:39.925Z,11.10
2018-09-18T17:09:09.881Z,11.10
2018-09-18T17:11:39.555Z,13.20
2018-09-18T17:14:08.849Z,12.90
2018-09-18T17:16:38.334Z,15.70
2018-09-18T17:19:07.574Z,15.80
2018-09-18T17:21:36.796Z,14.57
2018-09-18T17:24:06.204Z,13.57
2018-09-18T17:26:35.759Z,12.47
2018-09-18T17:29:04.921Z,20.53
2018-09-18T17:31:34.636Z,19.17
2018-09-18T17:34:03.875Z,17.50
2018-09-18T17:36:33.328Z,20.50
2018-09-18T17:39:02.703Z,19.10
2018-09-18T17:41:32.081Z,17.13
2018-09-18T17:44:01.365Z,14.30
2018-09-18T17:46:30.652Z,13.30
2018-09-18T17:49:00.039Z,12.93
2018-09-18T17:51:29.832Z,13.97
2018-09-18T17:53:59.610Z,13.97
2018-09-18T17:56:29.119Z,13.73
2018-09-18T17:58:58.485Z,13.57
2018-09-18T18:01:28.122Z,13.07
2018-09-18T18:03:57.294Z,14.00
2018-09-18T18:06:26.503Z,14.93
2018-09-18T18:08:55.718Z,14.30
2018-09-18T18:11:25.924Z,14.30
2018-09-18T18:13:55.379Z,16.33
2018-09-18T18:16:24.872Z,17.87
2018-09-18T18:18:54.257Z,19.07
2018-09-18T18:21:23.494Z,19.87
2018-09-18T18:23:52.995Z,20.73
2018-09-18T18:26:22.345Z,17.70
2018-09-18T18:28:51.664Z,19.07
2018-09-18T18:31:21.364Z,18.40
2018-09-18T18:33:50.928Z,21.60
2018-09-18T18:36:20.157Z,21.93
2018-09-18T18:38:49.417Z,20.77
2018-09-18T18:41:18.891Z,19.47
2018-09-18T18:43:48.334Z,20.37
2018-09-18T18:46:17.858Z,18.57
2018-09-18T18:48:47.285Z,24.37
2018-09-18T18:51:17.044Z,21.23
2018-09-18T18:53:46.542Z,22.20
2018-09-18T18:56:16.069Z,21.57
2018-09-18T18:58:45.376Z,20.80
2018-09-18T19:01:14.741Z,20.90
2018-09-18T19:03:44.077Z,22.83
2018-09-18T19:06:13.647Z,28.90
2018-09-18T19:08:42.905Z,25.53
2018-09-18T19:11:12.725Z,24.03
2018-09-18T19:13:41.945Z,24.70
2018-09-18T19:16:11.261Z,25.77
2018-09-18T19:18:40.463Z,30.40
2018-09-18T19:21:09.424Z,27.97
2018-09-18T19:23:38.695Z,24.97
2018-09-18T19:26:08.386Z,26.50
2018-09-18T19:28:37.635Z,23.90
2018-09-18T19:31:07.368Z,23.20
2018-09-18T19:33:37.402Z,21.73
2018-09-18T19:36:06.496Z,22.30
2018-09-18T19:38:35.668Z,22.53
2018-09-18T19:41:05.115Z,19.90
2018-09-18T19:43:34.354Z,22.03
2018-09-18T19:46:03.876Z,19.90
2018-09-18T19:48:32.974Z,18.70
2018-09-18T19:51:02.231Z,18.33
2018-09-18T19:53:31.375Z,17.20
2018-09-18T19:56:00.762Z,17.47
2018-09-18T19:58:30.085Z,17.47
2018-09-18T20:01:00.076Z,19.23
2018-09-18T20:03:29.503Z,17.80
2018-09-18T20:05:58.658Z,17.40
2018-09-18T20:08:27.908Z,18.67
2018-09-18T20:10:57.422Z,17.93
2018-09-18T20:13:26.551Z,20.23
2018-09-18T20:15:55.791Z,18.27
2018-09-18T20:18:25.563Z,18.87
2018-09-18T20:20:55.074Z,18.50
2018-09-18T20:23:23.855Z,18.93
2018-09-18T20:25:53.991Z,23.27
2018-09-18T20:28:23.881Z,21.80
2018-09-18T20:30:53.249Z,19.67
2018-09-18T20:33:22.559Z,20.57
2018-09-18T20:35:52.196Z,18.43
2018-09-18T20:38:21.543Z,18.17
2018-09-18T20:40:51.436Z,18.33
2018-09-18T20:43:20.765Z,19.67
2018-09-18T20:45:50.392Z,21.70
2018-09-18T20:48:19.931Z,19.60
2018-09-18T20:50:49.553Z,18.00
2018-09-18T20:53:18.987Z,18.47
2018-09-18T20:55:48.165Z,17.90
2018-09-18T20:58:17.804Z,16.53
2018-09-18T21:00:47.484Z,17.33
2018-09-18T21:03:16.888Z,16.80
2018-09-18T21:05:46.140Z,16.37
2018-09-18T21:08:15.422Z,16.57
2018-09-18T21:10:45.084Z,16.47
2018-09-18T21:13:14.589Z,15.20
2018-09-18T21:15:44.368Z,15.03
2018-09-18T21:18:13.764Z,16.93
2018-09-18T21:20:43.208Z,16.10
2018-09-18T21:23:12.248Z,15.50
2018-09-18T21:26:13.796Z,15.03
2018-09-18T21:28:43.123Z,15.90
2018-09-18T21:31:12.506Z,15.70
2018-09-18T21:33:41.793Z,15.53
2018-09-18T21:36:11.072Z,14.47
2018-09-18T21:38:40.185Z,14.60
2018-09-18T21:41:09.483Z,14.30
2018-09-18T21:43:38.722Z,14.97
2018-09-18T21:46:08.027Z,13.77
2018-09-18T21:48:37.407Z,15.07
2018-09-18T21:51:06.620Z,14.83
2018-09-18T21:53:35.758Z,15.30
2018-09-18T21:56:05.039Z,14.90
2018-09-18T21:58:34.312Z,14.33
2018-09-18T22:01:04.159Z,14.33
2018-09-18T22:29:22.033Z,12.83
2018-09-18T22:31:51.318Z,12.40
2018-09-18T22:34:20.463Z,13.73
2018-09-18T22:36:50.289Z,13.83
2018-09-18T22:39:19.625Z,13.33
2018-09-18T22:41:48.979Z,13.60
2018-09-18T22:44:18.334Z,12.40
2018-09-18T22:46:47.755Z,14.73
2018-09-18T22:49:17.028Z,14.23
2018-09-18T22:51:46.371Z,13.00
2018-09-18T22:54:15.523Z,13.70
2018-09-18T22:56:44.665Z,13.70
2018-09-18T22:59:14.251Z,13.23
2018-09-18T23:01:43.530Z,13.10
2018-09-18T23:04:12.667Z,13.83
2018-09-18T23:06:42.029Z,13.37
2018-09-18T23:09:11.432Z,13.73
2018-09-18T23:11:40.570Z,12.60
2018-09-18T23:14:10.235Z,12.87
2018-09-18T23:16:39.540Z,13.57
2018-09-18T23:19:08.813Z,12.67
2018-09-18T23:21:38.207Z,12.97
2018-09-18T23:24:07.643Z,12.63
2018-09-18T23:26:37.320Z,12.70
2018-09-18T23:29:07.864Z,12.63
2018-09-18T23:31:37.989Z,13.40
2018-09-18T23:34:07.347Z,12.40
2018-09-18T23:36:36.851Z,12.77
2018-09-18T23:39:07.360Z,12.20
2018-09-18T23:41:37.062Z,12.80
2018-09-18T23:44:06.357Z,13.00
2018-09-18T23:46:35.773Z,12.47
2018-09-18T23:49:05.394Z,12.00
2018-09-18T23:51:34.464Z,11.70
2018-09-18T23:54:03.899Z,11.47
2018-09-18T23:56:33.240Z,11.80
2018-09-18T23:59:02.409Z,11.43
